sensor_id;sensor_type;location;lat;lon;timestamp;temperature;humidity
4324;DHT22;2175;51.018;6.994;2023-05-07T00:02:25;14.70;99.90
4324;DHT22;2175;51.018;6.994;2023-05-07T00:04:51;14.70;99.90
4324;DHT22;2175;51.018;6.994;2023-05-07T00:07:18;14.70;99.90
4324;DHT22;2175;51.018;6.994;2023-05-07T00:09:44;14.70;99.90
4324;DHT22;2175;51.018;6.994;2023-05-07T00:12:10;14.70;99.90
4324;DHT22;2175;51.018;6.994;2023-05-07T00:14:35;14.70;99.90
4324;DHT22;2175;51.018;6.994;2023-05-07T00:17:01;14.70;99.90
4324;DHT22;2175;51.018;6.994;2023-05-07T00:19:27;14.70;99.90
4324;DHT22;2175;51.018;6.994;2023-05-07T00:21:53;14.70;99.90
4324;DHT22;2175;51.018;6.994;2023-05-07T00:24:21;14.70;99.90
4324;DHT22;2175;51.018;6.994;2023-05-07T00:26:47;14.70;99.90
4324;DHT22;2175;51.018;6.994;2023-05-07T00:29:12;14.70;99.90
4324;DHT22;2175;51.018;6.994;2023-05-07T00:31:38;14.70;99.90
4324;DHT22;2175;51.018;6.994;2023-05-07T00:34:04;14.60;99.90
4324;DHT22;2175;51.018;6.994;2023-05-07T00:36:29;14.60;99.90
4324;DHT22;2175;51.018;6.994;2023-05-07T00:38:56;14.60;99.90
4324;DHT22;2175;51.018;6.994;2023-05-07T00:41:22;14.60;99.90
4324;DHT22;2175;51.018;6.994;2023-05-07T00:43:48;14.60;99.90
4324;DHT22;2175;51.018;6.994;2023-05-07T00:46:14;14.60;99.90
4324;DHT22;2175;51.018;6.994;2023-05-07T00:48:41;14.60;99.90
4324;DHT22;2175;51.018;6.994;2023-05-07T00:51:06;14.60;99.90
4324;DHT22;2175;51.018;6.994;2023-05-07T00:53:32;14.60;99.90
4324;DHT22;2175;51.018;6.994;2023-05-07T00:55:58;14.60;99.90
4324;DHT22;2175;51.018;6.994;2023-05-07T00:58:24;14.60;99.90
4324;DHT22;2175;51.018;6.994;2023-05-07T01:00:50;14.60;99.90
4324;DHT22;2175;51.018;6.994;2023-05-07T01:03:16;14.50;99.90
4324;DHT22;2175;51.018;6.994;2023-05-07T01:05:42;14.60;99.90
4324;DHT22;2175;51.018;6.994;2023-05-07T01:08:08;14.50;99.90
4324;DHT22;2175;51.018;6.994;2023-05-07T01:10:34;14.50;99.90
4324;DHT22;2175;51.018;6.994;2023-05-07T01:13:00;14.60;99.90
4324;DHT22;2175;51.018;6.994;2023-05-07T01:15:26;14.50;99.90
4324;DHT22;2175;51.018;6.994;2023-05-07T01:17:52;14.50;99.90
4324;DHT22;2175;51.018;6.994;2023-05-07T01:20:18;14.50;99.90
4324;DHT22;2175;51.018;6.994;2023-05-07T01:22:45;14.50;99.90
4324;DHT22;2175;51.018;6.994;2023-05-07T01:25:11;14.50;99.90
4324;DHT22;2175;51.018;6.994;2023-05-07T01:27:37;14.50;99.90
4324;DHT22;2175;51.018;6.994;2023-05-07T01:30:06;14.50;99.90
4324;DHT22;2175;51.018;6.994;2023-05-07T01:32:43;14.40;99.90
4324;DHT22;2175;51.018;6.994;2023-05-07T01:35:11;14.40;99.90
4324;DHT22;2175;51.018;6.994;2023-05-07T01:37:47;14.40;99.90
4324;DHT22;2175;51.018;6.994;2023-05-07T01:40:13;14.40;99.90
4324;DHT22;2175;51.018;6.994;2023-05-07T01:42:39;14.40;99.90
4324;DHT22;2175;51.018;6.994;2023-05-07T01:45:06;14.40;99.90
4324;DHT22;2175;51.018;6.994;2023-05-07T01:47:32;14.40;99.90
4324;DHT22;2175;51.018;6.994;2023-05-07T01:49:58;14.40;99.90
4324;DHT22;2175;51.018;6.994;2023-05-07T01:52:24;14.30;99.90
4324;DHT22;2175;51.018;6.994;2023-05-07T01:54:50;14.30;99.90
4324;DHT22;2175;51.018;6.994;2023-05-07T01:57:16;14.20;99.90
4324;DHT22;2175;51.018;6.994;2023-05-07T01:59:41;14.20;99.90
4324;DHT22;2175;51.018;6.994;2023-05-07T02:02:07;14.20;99.90
4324;DHT22;2175;51.018;6.994;2023-05-07T02:04:33;14.30;99.90
4324;DHT22;2175;51.018;6.994;2023-05-07T02:06:59;14.30;99.90
4324;DHT22;2175;51.018;6.994;2023-05-07T02:09:25;14.30;99.90
4324;DHT22;2175;51.018;6.994;2023-05-07T02:11:50;14.30;99.90
4324;DHT22;2175;51.018;6.994;2023-05-07T02:14:16;14.30;99.90
4324;DHT22;2175;51.018;6.994;2023-05-07T02:16:41;14.30;99.90
4324;DHT22;2175;51.018;6.994;2023-05-07T02:19:07;14.20;99.90
4324;DHT22;2175;51.018;6.994;2023-05-07T02:21:32;14.20;99.90
4324;DHT22;2175;51.018;6.994;2023-05-07T02:23:58;14.10;99.90
4324;DHT22;2175;51.018;6.994;2023-05-07T02:26:24;14.00;99.90
4324;DHT22;2175;51.018;6.994;2023-05-07T02:28:50;14.00;99.90
4324;DHT22;2175;51.018;6.994;2023-05-07T02:31:16;13.90;99.90
4324;DHT22;2175;51.018;6.994;2023-05-07T02:33:41;13.90;99.90
4324;DHT22;2175;51.018;6.994;2023-05-07T02:36:08;13.80;99.90
4324;DHT22;2175;51.018;6.994;2023-05-07T02:38:34;13.80;99.90
4324;DHT22;2175;51.018;6.994;2023-05-07T02:41:00;13.80;99.90
4324;DHT22;2175;51.018;6.994;2023-05-07T02:43:26;13.70;99.90
4324;DHT22;2175;51.018;6.994;2023-05-07T02:46:02;13.60;99.90
4324;DHT22;2175;51.018;6.994;2023-05-07T02:48:28;13.60;99.90
4324;DHT22;2175;51.018;6.994;2023-05-07T02:50:53;13.60;99.90
4324;DHT22;2175;51.018;6.994;2023-05-07T02:53:19;13.50;99.90
4324;DHT22;2175;51.018;6.994;2023-05-07T02:55:45;13.50;99.90
4324;DHT22;2175;51.018;6.994;2023-05-07T02:58:10;13.50;99.90
4324;DHT22;2175;51.018;6.994;2023-05-07T03:00:36;13.60;99.90
4324;DHT22;2175;51.018;6.994;2023-05-07T03:03:01;13.60;99.90
4324;DHT22;2175;51.018;6.994;2023-05-07T03:05:27;13.60;99.90
4324;DHT22;2175;51.018;6.994;2023-05-07T03:07:53;13.60;99.90
4324;DHT22;2175;51.018;6.994;2023-05-07T03:10:18;13.60;99.90
4324;DHT22;2175;51.018;6.994;2023-05-07T03:12:44;13.50;99.90
4324;DHT22;2175;51.018;6.994;2023-05-07T03:15:10;13.50;99.90
4324;DHT22;2175;51.018;6.994;2023-05-07T03:17:38;13.50;99.90
4324;DHT22;2175;51.018;6.994;2023-05-07T03:20:04;13.50;99.90
4324;DHT22;2175;51.018;6.994;2023-05-07T03:22:29;13.50;99.90
4324;DHT22;2175;51.018;6.994;2023-05-07T03:24:55;13.60;99.90
4324;DHT22;2175;51.018;6.994;2023-05-07T03:27:21;13.60;99.90
4324;DHT22;2175;51.018;6.994;2023-05-07T03:29:46;13.50;99.90
4324;DHT22;2175;51.018;6.994;2023-05-07T03:32:12;13.50;99.90
4324;DHT22;2175;51.018;6.994;2023-05-07T03:34:37;13.50;99.90
4324;DHT22;2175;51.018;6.994;2023-05-07T03:37:03;13.50;99.90
4324;DHT22;2175;51.018;6.994;2023-05-07T03:39:28;13.50;99.90
4324;DHT22;2175;51.018;6.994;2023-05-07T03:41:54;13.30;99.90
4324;DHT22;2175;51.018;6.994;2023-05-07T03:44:20;13.30;99.90
4324;DHT22;2175;51.018;6.994;2023-05-07T03:46:45;13.30;99.90
4324;DHT22;2175;51.018;6.994;2023-05-07T03:49:11;13.20;99.90
4324;DHT22;2175;51.018;6.994;2023-05-07T03:51:36;13.20;99.90
4324;DHT22;2175;51.018;6.994;2023-05-07T03:54:02;13.20;99.90
4324;DHT22;2175;51.018;6.994;2023-05-07T03:56:27;13.30;99.90
4324;DHT22;2175;51.018;6.994;2023-05-07T03:58:53;13.30;99.90
4324;DHT22;2175;51.018;6.994;2023-05-07T04:01:19;13.20;99.90
4324;DHT22;2175;51.018;6.994;2023-05-07T04:03:45;13.20;99.90
4324;DHT22;2175;51.018;6.994;2023-05-07T04:06:10;13.20;99.90
4324;DHT22;2175;51.018;6.994;2023-05-07T04:08:37;13.20;99.90
4324;DHT22;2175;51.018;6.994;2023-05-07T04:11:03;13.20;99.90
4324;DHT22;2175;51.018;6.994;2023-05-07T04:13:29;13.20;99.90
4324;DHT22;2175;51.018;6.994;2023-05-07T04:15:55;13.20;99.90
4324;DHT22;2175;51.018;6.994;2023-05-07T04:18:21;13.20;99.90
4324;DHT22;2175;51.018;6.994;2023-05-07T04:20:48;13.20;99.90
4324;DHT22;2175;51.018;6.994;2023-05-07T04:23:14;13.30;99.90
4324;DHT22;2175;51.018;6.994;2023-05-07T04:25:40;13.30;99.90
4324;DHT22;2175;51.018;6.994;2023-05-07T04:28:06;13.30;99.90
4324;DHT22;2175;51.018;6.994;2023-05-07T04:30:31;13.30;99.90
4324;DHT22;2175;51.018;6.994;2023-05-07T04:32:57;13.40;99.90
4324;DHT22;2175;51.018;6.994;2023-05-07T04:35:22;13.40;99.90
4324;DHT22;2175;51.018;6.994;2023-05-07T04:37:48;13.40;99.90
4324;DHT22;2175;51.018;6.994;2023-05-07T04:40:14;13.50;99.90
4324;DHT22;2175;51.018;6.994;2023-05-07T04:42:39;13.60;99.90
4324;DHT22;2175;51.018;6.994;2023-05-07T04:45:06;13.60;99.90
4324;DHT22;2175;51.018;6.994;2023-05-07T04:47:31;13.60;99.90
4324;DHT22;2175;51.018;6.994;2023-05-07T04:50:00;13.60;99.90
4324;DHT22;2175;51.018;6.994;2023-05-07T04:52:25;13.60;99.90
4324;DHT22;2175;51.018;6.994;2023-05-07T04:54:52;13.60;99.90
4324;DHT22;2175;51.018;6.994;2023-05-07T04:57:17;13.50;99.90
4324;DHT22;2175;51.018;6.994;2023-05-07T04:59:43;13.50;99.90
4324;DHT22;2175;51.018;6.994;2023-05-07T05:02:10;13.70;99.90
4324;DHT22;2175;51.018;6.994;2023-05-07T05:04:36;13.80;99.90
4324;DHT22;2175;51.018;6.994;2023-05-07T05:07:02;13.90;99.90
4324;DHT22;2175;51.018;6.994;2023-05-07T05:09:29;14.00;99.90
4324;DHT22;2175;51.018;6.994;2023-05-07T05:11:55;14.00;99.90
4324;DHT22;2175;51.018;6.994;2023-05-07T05:14:21;14.00;99.90
4324;DHT22;2175;51.018;6.994;2023-05-07T05:16:47;14.00;99.90
4324;DHT22;2175;51.018;6.994;2023-05-07T05:19:12;13.90;99.90
4324;DHT22;2175;51.018;6.994;2023-05-07T05:21:38;14.00;99.90
4324;DHT22;2175;51.018;6.994;2023-05-07T05:24:04;14.10;99.90
4324;DHT22;2175;51.018;6.994;2023-05-07T05:26:29;14.20;99.90
4324;DHT22;2175;51.018;6.994;2023-05-07T05:28:55;14.30;99.90
4324;DHT22;2175;51.018;6.994;2023-05-07T05:31:20;14.40;99.90
4324;DHT22;2175;51.018;6.994;2023-05-07T05:33:46;14.40;99.90
4324;DHT22;2175;51.018;6.994;2023-05-07T05:36:12;14.40;99.90
4324;DHT22;2175;51.018;6.994;2023-05-07T05:38:39;14.50;99.90
4324;DHT22;2175;51.018;6.994;2023-05-07T05:41:05;14.40;99.90
4324;DHT22;2175;51.018;6.994;2023-05-07T05:43:32;14.50;99.90
4324;DHT22;2175;51.018;6.994;2023-05-07T05:45:58;14.40;99.90
4324;DHT22;2175;51.018;6.994;2023-05-07T05:48:24;14.40;99.90
4324;DHT22;2175;51.018;6.994;2023-05-07T05:50:49;14.50;99.90
4324;DHT22;2175;51.018;6.994;2023-05-07T05:53:15;14.60;99.90
4324;DHT22;2175;51.018;6.994;2023-05-07T05:55:41;14.60;99.90
4324;DHT22;2175;51.018;6.994;2023-05-07T05:58:08;14.70;99.90
4324;DHT22;2175;51.018;6.994;2023-05-07T06:00:34;14.70;99.90
4324;DHT22;2175;51.018;6.994;2023-05-07T06:02:59;14.80;99.90
4324;DHT22;2175;51.018;6.994;2023-05-07T06:05:25;14.90;99.90
4324;DHT22;2175;51.018;6.994;2023-05-07T06:07:51;15.00;99.90
4324;DHT22;2175;51.018;6.994;2023-05-07T06:10:16;15.00;99.90
4324;DHT22;2175;51.018;6.994;2023-05-07T06:12:42;15.10;99.90
4324;DHT22;2175;51.018;6.994;2023-05-07T06:15:08;15.10;99.90
4324;DHT22;2175;51.018;6.994;2023-05-07T06:17:34;15.20;99.90
4324;DHT22;2175;51.018;6.994;2023-05-07T06:19:59;15.30;99.90
4324;DHT22;2175;51.018;6.994;2023-05-07T06:22:25;15.40;99.90
4324;DHT22;2175;51.018;6.994;2023-05-07T06:24:50;15.50;99.90
4324;DHT22;2175;51.018;6.994;2023-05-07T06:27:16;15.60;99.90
4324;DHT22;2175;51.018;6.994;2023-05-07T06:29:42;15.70;99.90
4324;DHT22;2175;51.018;6.994;2023-05-07T06:32:12;15.80;99.90
4324;DHT22;2175;51.018;6.994;2023-05-07T06:34:38;15.80;99.90
4324;DHT22;2175;51.018;6.994;2023-05-07T06:37:05;15.80;99.90
4324;DHT22;2175;51.018;6.994;2023-05-07T06:39:30;15.90;99.90
4324;DHT22;2175;51.018;6.994;2023-05-07T06:41:56;16.00;99.90
4324;DHT22;2175;51.018;6.994;2023-05-07T06:44:22;16.10;99.90
4324;DHT22;2175;51.018;6.994;2023-05-07T06:46:47;16.10;99.90
4324;DHT22;2175;51.018;6.994;2023-05-07T06:49:13;16.20;99.90
4324;DHT22;2175;51.018;6.994;2023-05-07T06:51:39;16.30;99.90
4324;DHT22;2175;51.018;6.994;2023-05-07T06:54:05;16.40;99.90
4324;DHT22;2175;51.018;6.994;2023-05-07T06:56:31;16.60;99.90
4324;DHT22;2175;51.018;6.994;2023-05-07T06:58:57;16.60;99.90
4324;DHT22;2175;51.018;6.994;2023-05-07T07:01:22;16.70;99.90
4324;DHT22;2175;51.018;6.994;2023-05-07T07:03:48;16.80;99.90
4324;DHT22;2175;51.018;6.994;2023-05-07T07:06:14;17.00;99.90
4324;DHT22;2175;51.018;6.994;2023-05-07T07:08:39;17.10;99.90
4324;DHT22;2175;51.018;6.994;2023-05-07T07:11:06;17.40;99.90
4324;DHT22;2175;51.018;6.994;2023-05-07T07:13:31;17.60;99.90
4324;DHT22;2175;51.018;6.994;2023-05-07T07:15:57;17.80;99.90
4324;DHT22;2175;51.018;6.994;2023-05-07T07:18:23;18.10;99.90
4324;DHT22;2175;51.018;6.994;2023-05-07T07:20:49;18.40;99.90
4324;DHT22;2175;51.018;6.994;2023-05-07T07:23:15;18.80;99.90
4324;DHT22;2175;51.018;6.994;2023-05-07T07:25:41;19.20;99.90
4324;DHT22;2175;51.018;6.994;2023-05-07T07:28:07;19.40;99.90
4324;DHT22;2175;51.018;6.994;2023-05-07T07:30:32;19.40;99.90
4324;DHT22;2175;51.018;6.994;2023-05-07T07:32:58;19.40;99.90
4324;DHT22;2175;51.018;6.994;2023-05-07T07:35:29;19.50;99.90
4324;DHT22;2175;51.018;6.994;2023-05-07T07:37:55;19.80;99.90
4324;DHT22;2175;51.018;6.994;2023-05-07T07:40:20;20.00;99.90
4324;DHT22;2175;51.018;6.994;2023-05-07T07:42:46;20.20;99.90
4324;DHT22;2175;51.018;6.994;2023-05-07T07:47:40;20.30;99.90
4324;DHT22;2175;51.018;6.994;2023-05-07T07:50:06;20.40;99.90
4324;DHT22;2175;51.018;6.994;2023-05-07T07:52:32;20.60;99.90
4324;DHT22;2175;51.018;6.994;2023-05-07T07:54:58;21.00;99.90
4324;DHT22;2175;51.018;6.994;2023-05-07T07:57:24;21.20;99.90
4324;DHT22;2175;51.018;6.994;2023-05-07T07:59:50;21.10;99.90
4324;DHT22;2175;51.018;6.994;2023-05-07T08:02:16;20.80;99.90
4324;DHT22;2175;51.018;6.994;2023-05-07T08:04:42;20.50;99.90
4324;DHT22;2175;51.018;6.994;2023-05-07T08:07:10;20.20;99.90
4324;DHT22;2175;51.018;6.994;2023-05-07T08:09:37;20.20;99.90
4324;DHT22;2175;51.018;6.994;2023-05-07T08:12:04;20.20;99.90
4324;DHT22;2175;51.018;6.994;2023-05-07T08:14:31;20.20;99.90
4324;DHT22;2175;51.018;6.994;2023-05-07T08:16:57;19.90;99.90
4324;DHT22;2175;51.018;6.994;2023-05-07T08:19:23;19.80;99.90
4324;DHT22;2175;51.018;6.994;2023-05-07T08:21:49;19.80;99.90
4324;DHT22;2175;51.018;6.994;2023-05-07T08:24:15;19.80;99.90
4324;DHT22;2175;51.018;6.994;2023-05-07T08:26:41;19.90;99.90
4324;DHT22;2175;51.018;6.994;2023-05-07T08:29:08;19.90;99.90
4324;DHT22;2175;51.018;6.994;2023-05-07T08:31:34;20.00;99.90
4324;DHT22;2175;51.018;6.994;2023-05-07T08:34:01;20.00;99.90
4324;DHT22;2175;51.018;6.994;2023-05-07T08:36:27;20.00;99.90
4324;DHT22;2175;51.018;6.994;2023-05-07T08:38:54;20.10;99.90
4324;DHT22;2175;51.018;6.994;2023-05-07T08:41:20;20.10;99.90
4324;DHT22;2175;51.018;6.994;2023-05-07T08:43:48;20.20;99.90
4324;DHT22;2175;51.018;6.994;2023-05-07T08:46:19;20.30;99.90
4324;DHT22;2175;51.018;6.994;2023-05-07T08:48:48;20.70;99.90
4324;DHT22;2175;51.018;6.994;2023-05-07T08:51:17;20.80;99.90
4324;DHT22;2175;51.018;6.994;2023-05-07T08:53:43;21.20;99.90
4324;DHT22;2175;51.018;6.994;2023-05-07T08:56:09;21.50;99.90
4324;DHT22;2175;51.018;6.994;2023-05-07T08:58:35;21.80;99.90
4324;DHT22;2175;51.018;6.994;2023-05-07T09:01:06;22.40;99.90
4324;DHT22;2175;51.018;6.994;2023-05-07T09:03:32;22.40;99.90
4324;DHT22;2175;51.018;6.994;2023-05-07T09:05:58;22.60;99.90
4324;DHT22;2175;51.018;6.994;2023-05-07T09:08:27;22.40;99.90
4324;DHT22;2175;51.018;6.994;2023-05-07T09:10:54;22.10;99.90
4324;DHT22;2175;51.018;6.994;2023-05-07T09:13:20;22.00;99.90
4324;DHT22;2175;51.018;6.994;2023-05-07T09:15:46;22.10;99.90
4324;DHT22;2175;51.018;6.994;2023-05-07T09:18:12;22.00;99.90
4324;DHT22;2175;51.018;6.994;2023-05-07T09:20:38;21.90;99.90
4324;DHT22;2175;51.018;6.994;2023-05-07T09:23:05;22.00;99.90
4324;DHT22;2175;51.018;6.994;2023-05-07T09:25:33;21.90;99.90
4324;DHT22;2175;51.018;6.994;2023-05-07T09:28:02;22.10;99.90
4324;DHT22;2175;51.018;6.994;2023-05-07T09:30:32;22.30;99.90
4324;DHT22;2175;51.018;6.994;2023-05-07T09:32:59;22.90;99.90
4324;DHT22;2175;51.018;6.994;2023-05-07T09:35:26;23.60;99.90
4324;DHT22;2175;51.018;6.994;2023-05-07T09:37:58;24.00;99.90
4324;DHT22;2175;51.018;6.994;2023-05-07T09:40:26;24.80;99.90
4324;DHT22;2175;51.018;6.994;2023-05-07T09:42:52;25.20;99.90
4324;DHT22;2175;51.018;6.994;2023-05-07T09:45:22;25.30;99.90
4324;DHT22;2175;51.018;6.994;2023-05-07T09:47:49;25.10;99.90
4324;DHT22;2175;51.018;6.994;2023-05-07T09:50:19;24.70;99.90
4324;DHT22;2175;51.018;6.994;2023-05-07T09:52:47;24.30;99.90
4324;DHT22;2175;51.018;6.994;2023-05-07T09:55:13;23.70;99.90
4324;DHT22;2175;51.018;6.994;2023-05-07T09:57:42;23.30;99.90
4324;DHT22;2175;51.018;6.994;2023-05-07T10:00:09;23.00;99.90
4324;DHT22;2175;51.018;6.994;2023-05-07T10:02:36;22.50;99.90
4324;DHT22;2175;51.018;6.994;2023-05-07T10:05:03;22.50;99.90
4324;DHT22;2175;51.018;6.994;2023-05-07T10:07:29;22.70;99.90
4324;DHT22;2175;51.018;6.994;2023-05-07T10:09:55;23.20;99.90
4324;DHT22;2175;51.018;6.994;2023-05-07T10:12:21;23.40;99.90
4324;DHT22;2175;51.018;6.994;2023-05-07T10:14:47;23.80;99.90
4324;DHT22;2175;51.018;6.994;2023-05-07T10:17:16;24.10;99.90
4324;DHT22;2175;51.018;6.994;2023-05-07T10:19:46;24.40;99.90
4324;DHT22;2175;51.018;6.994;2023-05-07T10:22:14;24.60;99.90
4324;DHT22;2175;51.018;6.994;2023-05-07T10:24:40;24.80;99.90
4324;DHT22;2175;51.018;6.994;2023-05-07T10:27:10;24.80;99.90
4324;DHT22;2175;51.018;6.994;2023-05-07T10:29:49;24.60;99.90
4324;DHT22;2175;51.018;6.994;2023-05-07T10:32:39;24.40;99.90
4324;DHT22;2175;51.018;6.994;2023-05-07T10:35:11;24.50;99.90
4324;DHT22;2175;51.018;6.994;2023-05-07T10:37:40;24.70;99.90
4324;DHT22;2175;51.018;6.994;2023-05-07T10:40:06;24.50;99.90
4324;DHT22;2175;51.018;6.994;2023-05-07T10:42:32;24.40;99.90
4324;DHT22;2175;51.018;6.994;2023-05-07T10:44:58;24.40;99.90
4324;DHT22;2175;51.018;6.994;2023-05-07T10:50:36;23.80;99.90
4324;DHT22;2175;51.018;6.994;2023-05-07T10:55:50;23.80;99.90
4324;DHT22;2175;51.018;6.994;2023-05-07T10:58:23;23.90;99.90
4324;DHT22;2175;51.018;6.994;2023-05-07T11:00:50;24.10;99.90
4324;DHT22;2175;51.018;6.994;2023-05-07T11:03:17;23.90;99.90
4324;DHT22;2175;51.018;6.994;2023-05-07T11:05:43;23.70;99.90
4324;DHT22;2175;51.018;6.994;2023-05-07T11:08:09;23.50;99.90
4324;DHT22;2175;51.018;6.994;2023-05-07T11:10:55;23.40;99.90
4324;DHT22;2175;51.018;6.994;2023-05-07T11:14:00;23.20;99.90
4324;DHT22;2175;51.018;6.994;2023-05-07T11:16:25;23.10;99.90
4324;DHT22;2175;51.018;6.994;2023-05-07T11:18:55;23.10;99.90
4324;DHT22;2175;51.018;6.994;2023-05-07T11:21:38;22.90;99.90
4324;DHT22;2175;51.018;6.994;2023-05-07T11:24:08;22.90;99.90
4324;DHT22;2175;51.018;6.994;2023-05-07T11:26:47;22.90;99.90
4324;DHT22;2175;51.018;6.994;2023-05-07T11:29:18;22.90;99.90
4324;DHT22;2175;51.018;6.994;2023-05-07T11:31:48;22.80;99.90
4324;DHT22;2175;51.018;6.994;2023-05-07T11:34:15;22.90;99.90
4324;DHT22;2175;51.018;6.994;2023-05-07T11:36:47;22.80;99.90
4324;DHT22;2175;51.018;6.994;2023-05-07T11:39:25;22.70;99.90
4324;DHT22;2175;51.018;6.994;2023-05-07T11:41:53;22.60;99.90
4324;DHT22;2175;51.018;6.994;2023-05-07T11:44:20;22.40;99.90
4324;DHT22;2175;51.018;6.994;2023-05-07T11:46:45;22.50;99.90
4324;DHT22;2175;51.018;6.994;2023-05-07T11:49:12;22.50;99.90
4324;DHT22;2175;51.018;6.994;2023-05-07T11:51:39;22.50;99.90
4324;DHT22;2175;51.018;6.994;2023-05-07T11:54:05;22.50;99.90
4324;DHT22;2175;51.018;6.994;2023-05-07T11:56:35;22.50;99.90
4324;DHT22;2175;51.018;6.994;2023-05-07T11:59:02;22.40;99.90
4324;DHT22;2175;51.018;6.994;2023-05-07T12:01:28;22.40;99.90
4324;DHT22;2175;51.018;6.994;2023-05-07T12:03:53;22.40;99.90
4324;DHT22;2175;51.018;6.994;2023-05-07T12:06:19;22.50;99.90
4324;DHT22;2175;51.018;6.994;2023-05-07T12:08:46;22.50;99.90
4324;DHT22;2175;51.018;6.994;2023-05-07T12:11:18;22.50;99.90
4324;DHT22;2175;51.018;6.994;2023-05-07T12:13:47;22.50;99.90
4324;DHT22;2175;51.018;6.994;2023-05-07T12:16:13;22.50;99.90
4324;DHT22;2175;51.018;6.994;2023-05-07T12:18:39;22.70;99.90
4324;DHT22;2175;51.018;6.994;2023-05-07T12:21:06;22.50;99.90
4324;DHT22;2175;51.018;6.994;2023-05-07T12:23:34;22.60;99.90
4324;DHT22;2175;51.018;6.994;2023-05-07T12:26:00;22.60;99.90
4324;DHT22;2175;51.018;6.994;2023-05-07T12:28:26;22.60;99.90
4324;DHT22;2175;51.018;6.994;2023-05-07T12:30:52;22.60;99.90
4324;DHT22;2175;51.018;6.994;2023-05-07T12:33:23;22.40;99.90
4324;DHT22;2175;51.018;6.994;2023-05-07T12:35:49;22.30;99.90
4324;DHT22;2175;51.018;6.994;2023-05-07T12:38:16;22.20;99.90
4324;DHT22;2175;51.018;6.994;2023-05-07T12:43:24;22.10;99.90
4324;DHT22;2175;51.018;6.994;2023-05-07T12:45:51;22.10;99.90
4324;DHT22;2175;51.018;6.994;2023-05-07T12:48:19;22.00;99.90
4324;DHT22;2175;51.018;6.994;2023-05-07T12:50:45;22.00;99.90
4324;DHT22;2175;51.018;6.994;2023-05-07T12:53:14;22.00;99.90
4324;DHT22;2175;51.018;6.994;2023-05-07T12:55:48;21.90;99.90
4324;DHT22;2175;51.018;6.994;2023-05-07T13:00:51;22.00;99.90
4324;DHT22;2175;51.018;6.994;2023-05-07T13:03:29;21.90;99.90
4324;DHT22;2175;51.018;6.994;2023-05-07T13:05:57;21.80;99.90
4324;DHT22;2175;51.018;6.994;2023-05-07T13:10:57;21.60;99.90
4324;DHT22;2175;51.018;6.994;2023-05-07T13:13:23;21.50;99.90
4324;DHT22;2175;51.018;6.994;2023-05-07T13:15:49;21.40;99.90
4324;DHT22;2175;51.018;6.994;2023-05-07T13:18:15;21.40;99.90
4324;DHT22;2175;51.018;6.994;2023-05-07T13:20:40;21.30;99.90
4324;DHT22;2175;51.018;6.994;2023-05-07T13:23:06;21.10;99.90
4324;DHT22;2175;51.018;6.994;2023-05-07T13:25:32;21.10;99.90
4324;DHT22;2175;51.018;6.994;2023-05-07T13:27:57;21.10;99.90
4324;DHT22;2175;51.018;6.994;2023-05-07T13:30:23;21.00;99.90
4324;DHT22;2175;51.018;6.994;2023-05-07T13:32:49;21.00;99.90
4324;DHT22;2175;51.018;6.994;2023-05-07T13:35:16;20.90;99.90
4324;DHT22;2175;51.018;6.994;2023-05-07T13:37:41;20.90;99.90
4324;DHT22;2175;51.018;6.994;2023-05-07T13:40:08;20.90;99.90
4324;DHT22;2175;51.018;6.994;2023-05-07T13:42:34;20.90;99.90
4324;DHT22;2175;51.018;6.994;2023-05-07T13:47:28;20.90;99.90
4324;DHT22;2175;51.018;6.994;2023-05-07T13:49:55;20.90;99.90
4324;DHT22;2175;51.018;6.994;2023-05-07T13:52:22;20.90;99.90
4324;DHT22;2175;51.018;6.994;2023-05-07T13:54:50;20.80;99.90
4324;DHT22;2175;51.018;6.994;2023-05-07T13:57:17;20.70;99.90
4324;DHT22;2175;51.018;6.994;2023-05-07T13:59:43;20.70;99.90
4324;DHT22;2175;51.018;6.994;2023-05-07T14:02:09;20.70;99.90
4324;DHT22;2175;51.018;6.994;2023-05-07T14:04:35;20.50;99.90
4324;DHT22;2175;51.018;6.994;2023-05-07T14:07:01;20.60;99.90
4324;DHT22;2175;51.018;6.994;2023-05-07T14:09:26;20.60;99.90
4324;DHT22;2175;51.018;6.994;2023-05-07T14:11:52;20.80;99.90
4324;DHT22;2175;51.018;6.994;2023-05-07T14:14:18;20.90;99.90
4324;DHT22;2175;51.018;6.994;2023-05-07T14:16:44;21.00;99.90
4324;DHT22;2175;51.018;6.994;2023-05-07T14:19:14;21.00;99.90
4324;DHT22;2175;51.018;6.994;2023-05-07T14:21:40;21.10;99.90
4324;DHT22;2175;51.018;6.994;2023-05-07T14:24:07;21.10;99.90
4324;DHT22;2175;51.018;6.994;2023-05-07T14:26:33;21.00;99.90
4324;DHT22;2175;51.018;6.994;2023-05-07T14:28:59;20.90;99.90
4324;DHT22;2175;51.018;6.994;2023-05-07T14:31:25;20.90;99.90
4324;DHT22;2175;51.018;6.994;2023-05-07T14:33:51;20.90;99.90
4324;DHT22;2175;51.018;6.994;2023-05-07T14:36:18;20.90;99.90
4324;DHT22;2175;51.018;6.994;2023-05-07T14:38:48;20.90;99.90
4324;DHT22;2175;51.018;6.994;2023-05-07T14:41:14;20.80;99.90
4324;DHT22;2175;51.018;6.994;2023-05-07T14:43:41;20.80;99.90
4324;DHT22;2175;51.018;6.994;2023-05-07T14:46:07;20.90;99.90
4324;DHT22;2175;51.018;6.994;2023-05-07T14:48:33;20.90;99.90
4324;DHT22;2175;51.018;6.994;2023-05-07T14:50:59;20.70;99.90
4324;DHT22;2175;51.018;6.994;2023-05-07T14:54:01;20.60;99.90
4324;DHT22;2175;51.018;6.994;2023-05-07T14:56:32;20.50;99.90
4324;DHT22;2175;51.018;6.994;2023-05-07T14:59:17;20.50;99.90
4324;DHT22;2175;51.018;6.994;2023-05-07T15:01:46;20.40;99.90
4324;DHT22;2175;51.018;6.994;2023-05-07T15:04:12;20.40;99.90
4324;DHT22;2175;51.018;6.994;2023-05-07T15:06:38;20.40;99.90
4324;DHT22;2175;51.018;6.994;2023-05-07T15:09:04;20.40;99.90
4324;DHT22;2175;51.018;6.994;2023-05-07T15:11:30;20.50;99.90
4324;DHT22;2175;51.018;6.994;2023-05-07T15:13:57;20.60;99.90
4324;DHT22;2175;51.018;6.994;2023-05-07T15:16:23;20.50;99.90
4324;DHT22;2175;51.018;6.994;2023-05-07T15:18:48;20.30;99.90
4324;DHT22;2175;51.018;6.994;2023-05-07T15:21:15;20.40;99.90
4324;DHT22;2175;51.018;6.994;2023-05-07T15:23:41;20.30;99.90
4324;DHT22;2175;51.018;6.994;2023-05-07T15:26:06;20.30;99.90
4324;DHT22;2175;51.018;6.994;2023-05-07T15:28:33;20.30;99.90
4324;DHT22;2175;51.018;6.994;2023-05-07T15:30:59;20.30;99.90
4324;DHT22;2175;51.018;6.994;2023-05-07T15:33:25;20.30;99.90
4324;DHT22;2175;51.018;6.994;2023-05-07T15:35:51;20.40;99.90
4324;DHT22;2175;51.018;6.994;2023-05-07T15:38:16;20.30;99.90
4324;DHT22;2175;51.018;6.994;2023-05-07T15:40:43;20.30;99.90
4324;DHT22;2175;51.018;6.994;2023-05-07T15:43:10;20.30;99.90
4324;DHT22;2175;51.018;6.994;2023-05-07T15:45:40;20.30;99.90
4324;DHT22;2175;51.018;6.994;2023-05-07T15:48:06;20.40;99.90
4324;DHT22;2175;51.018;6.994;2023-05-07T15:50:32;20.40;99.90
4324;DHT22;2175;51.018;6.994;2023-05-07T15:52:57;20.30;99.90
4324;DHT22;2175;51.018;6.994;2023-05-07T15:55:23;20.30;99.90
4324;DHT22;2175;51.018;6.994;2023-05-07T15:57:50;20.30;99.90
4324;DHT22;2175;51.018;6.994;2023-05-07T16:00:16;20.40;99.90
4324;DHT22;2175;51.018;6.994;2023-05-07T16:02:44;20.40;99.90
4324;DHT22;2175;51.018;6.994;2023-05-07T16:05:10;20.30;99.90
4324;DHT22;2175;51.018;6.994;2023-05-07T16:07:37;20.30;99.90
4324;DHT22;2175;51.018;6.994;2023-05-07T16:10:03;20.20;99.90
4324;DHT22;2175;51.018;6.994;2023-05-07T16:12:30;20.30;99.90
4324;DHT22;2175;51.018;6.994;2023-05-07T16:14:56;20.30;99.90
4324;DHT22;2175;51.018;6.994;2023-05-07T16:17:22;20.30;99.90
4324;DHT22;2175;51.018;6.994;2023-05-07T16:19:49;20.30;99.90